createdAt,value
2023-04-25T00:04:13.079Z,100.00
2023-04-25T00:09:36.184Z,100.00
2023-04-25T00:15:01.247Z,100.00
2023-04-25T00:20:26.320Z,100.00
2023-04-25T00:25:48.555Z,100.00
2023-04-25T00:31:11.513Z,100.00
2023-04-25T00:36:33.997Z,100.00
2023-04-25T00:41:56.993Z,100.00
2023-04-25T00:47:20.757Z,100.00
2023-04-25T00:52:45.504Z,100.00
2023-04-25T00:58:09.453Z,100.00
2023-04-25T01:03:33.132Z,100.00
2023-04-25T01:08:57.146Z,100.00
2023-04-25T01:14:19.470Z,100.00
2023-04-25T01:19:42.593Z,100.00
2023-04-25T01:25:05.729Z,99.24
2023-04-25T01:30:28.884Z,98.10
2023-04-25T01:35:51.323Z,97.10
2023-04-25T01:41:13.625Z,96.35
2023-04-25T01:46:36.755Z,95.89
2023-04-25T01:51:59.464Z,95.59
2023-04-25T01:57:21.812Z,95.21
2023-04-25T02:02:44.237Z,95.06
2023-04-25T02:08:07.082Z,94.59
2023-04-25T02:13:29.426Z,93.73
2023-04-25T02:18:53.410Z,92.77
2023-04-25T02:24:16.945Z,92.58
2023-04-25T02:29:39.212Z,92.92
2023-04-25T02:35:03.144Z,93.57
2023-04-25T02:40:25.884Z,94.61
2023-04-25T02:45:48.184Z,95.64
2023-04-25T02:51:10.535Z,96.36
2023-04-25T02:56:32.817Z,96.88
2023-04-25T03:01:55.124Z,97.21
2023-04-25T03:07:17.383Z,97.20
2023-04-25T03:12:39.678Z,96.49
2023-04-25T03:18:02.117Z,95.29
2023-04-25T03:23:24.617Z,94.69
2023-04-25T03:28:47.676Z,94.53
2023-04-25T03:34:09.916Z,94.22
2023-04-25T03:39:32.290Z,93.91
2023-04-25T03:44:54.526Z,93.83
2023-04-25T03:50:17.270Z,94.06
2023-04-25T03:55:40.773Z,94.38
2023-04-25T04:01:05.154Z,94.60
2023-04-25T04:06:37.797Z,95.19
2023-04-25T04:12:00.135Z,94.66
2023-04-25T04:17:22.943Z,94.51
2023-04-25T04:22:45.537Z,94.34
2023-04-25T04:28:08.655Z,94.00
2023-04-25T04:33:32.482Z,93.60
2023-04-25T04:38:55.223Z,93.12
2023-04-25T04:44:18.114Z,92.56
2023-04-25T04:49:41.254Z,91.93
2023-04-25T04:55:03.504Z,91.20
2023-04-25T05:00:29.120Z,90.45
2023-04-25T05:05:50.574Z,89.90
2023-04-25T05:11:13.366Z,89.31
2023-04-25T05:16:36.605Z,88.89
2023-04-25T05:21:58.911Z,88.37
2023-04-25T05:27:21.310Z,88.06
2023-04-25T05:32:43.596Z,87.62
2023-04-25T05:38:06.491Z,87.05
2023-04-25T05:43:28.754Z,86.41
2023-04-25T05:48:53.238Z,85.87
2023-04-25T05:54:16.134Z,85.08
2023-04-25T05:59:38.433Z,84.55
2023-04-25T06:05:03.660Z,83.60
2023-04-25T06:10:27.348Z,83.05
2023-04-25T06:15:50.003Z,82.71
2023-04-25T06:21:12.261Z,82.11
2023-04-25T06:26:34.519Z,81.53
2023-04-25T06:31:56.777Z,81.46
2023-04-25T06:37:19.055Z,81.20
2023-04-25T06:42:41.352Z,81.10
2023-04-25T06:48:03.637Z,80.70
2023-04-25T06:53:25.975Z,80.28
2023-04-25T06:58:48.488Z,79.74
2023-04-25T07:04:11.421Z,78.95
2023-04-25T07:09:35.288Z,77.68
2023-04-25T07:14:58.771Z,76.43
2023-04-25T07:20:22.329Z,74.91
2023-04-25T07:25:45.305Z,73.81
2023-04-25T07:31:08.347Z,71.46
2023-04-25T07:36:32.229Z,70.29
2023-04-25T07:41:55.458Z,69.45
2023-04-25T07:52:52.262Z,67.95
2023-04-25T07:58:16.099Z,68.10
2023-04-25T08:03:38.571Z,66.18
2023-04-25T08:09:01.134Z,63.00
2023-04-25T08:14:23.549Z,63.92
2023-04-25T08:19:45.821Z,64.21
2023-04-25T08:25:08.633Z,64.08
2023-04-25T08:30:31.093Z,65.25
2023-04-25T08:35:53.517Z,66.35
2023-04-25T08:41:17.846Z,67.00
2023-04-25T08:46:42.398Z,66.32
2023-04-25T08:52:12.228Z,66.29
2023-04-25T08:57:35.032Z,65.78
2023-04-25T09:02:58.416Z,66.14
2023-04-25T09:08:21.876Z,64.90
2023-04-25T09:13:45.198Z,65.32
2023-04-25T09:19:07.554Z,66.18
2023-04-25T09:24:40.831Z,67.24
2023-04-25T09:30:06.200Z,68.29
2023-04-25T09:35:32.208Z,68.43
2023-04-25T09:40:56.888Z,68.04
2023-04-25T09:46:23.049Z,67.15
2023-04-25T09:51:47.023Z,65.90
2023-04-25T09:57:19.733Z,63.55
2023-04-25T10:02:45.641Z,61.85
2023-04-25T10:08:10.458Z,61.02
2023-04-25T10:13:33.877Z,57.58
2023-04-25T10:18:56.149Z,56.26
2023-04-25T10:24:20.410Z,56.56
2023-04-25T10:29:46.939Z,58.80
2023-04-25T10:35:19.756Z,61.68
2023-04-25T10:40:42.243Z,61.94
2023-04-25T10:46:23.553Z,62.12
2023-04-25T10:51:55.454Z,62.25
2023-04-25T10:57:12.447Z,60.76
2023-04-25T11:02:37.159Z,60.00
2023-04-25T11:13:30.554Z,58.16
2023-04-25T11:14:38.063Z,59.00
2023-04-25T11:18:56.557Z,57.54
2023-04-25T11:24:21.535Z,57.40
2023-04-25T11:29:47.948Z,58.02
2023-04-25T11:35:12.411Z,58.63
2023-04-25T11:40:35.328Z,60.49
2023-04-25T11:45:59.831Z,60.56
2023-04-25T11:51:22.250Z,59.54
2023-04-25T11:56:44.490Z,58.74
2023-04-25T12:02:10.139Z,59.24
2023-04-25T12:07:34.796Z,59.82
2023-04-25T12:12:59.962Z,60.78
2023-04-25T12:18:22.941Z,61.14
2023-04-25T12:23:47.203Z,61.22
2023-04-25T12:29:10.127Z,59.91
2023-04-25T12:34:33.337Z,58.94
2023-04-25T12:39:56.666Z,56.57
2023-04-25T12:45:19.484Z,55.30
2023-04-25T12:50:43.866Z,55.18
2023-04-25T12:56:06.847Z,56.03
2023-04-25T13:01:29.414Z,57.08
2023-04-25T13:06:52.214Z,56.76
2023-04-25T13:12:14.871Z,57.70
2023-04-25T13:17:37.186Z,57.70
2023-04-25T13:23:01.026Z,57.12
2023-04-25T13:28:24.704Z,57.18
2023-04-25T13:33:47.126Z,58.36
2023-04-25T13:39:09.455Z,60.96
2023-04-25T13:44:32.660Z,63.67
2023-04-25T13:49:55.847Z,63.29
2023-04-25T13:55:18.746Z,63.11
2023-04-25T14:00:44.706Z,63.72
2023-04-25T14:06:07.717Z,64.31
2023-04-25T14:11:31.229Z,64.38
2023-04-25T14:16:55.473Z,63.86
2023-04-25T14:22:17.804Z,62.65
2023-04-25T14:27:40.058Z,60.68
2023-04-25T14:33:03.091Z,60.32
2023-04-25T14:38:27.052Z,60.54
2023-04-25T14:43:49.790Z,60.58
2023-04-25T14:49:14.749Z,62.69
2023-04-25T14:54:37.888Z,64.89
2023-04-25T15:00:01.002Z,67.15
2023-04-25T15:05:23.780Z,69.87
2023-04-25T15:10:46.846Z,72.75
2023-04-25T15:16:09.677Z,75.44
2023-04-25T15:21:32.940Z,76.76
2023-04-25T15:26:55.469Z,77.25
2023-04-25T15:32:18.689Z,77.54
2023-04-25T15:37:41.911Z,77.76
2023-04-25T15:43:05.311Z,77.79
2023-04-25T15:48:28.772Z,77.67
2023-04-25T15:53:51.956Z,77.32
2023-04-25T15:59:15.253Z,76.16
2023-04-25T16:04:38.920Z,75.09
2023-04-25T16:10:02.100Z,73.75
2023-04-25T16:15:25.499Z,69.45
2023-04-25T16:20:48.325Z,66.53
2023-04-25T16:26:10.703Z,66.36
2023-04-25T16:31:34.044Z,66.30
2023-04-25T16:36:56.757Z,66.42
2023-04-25T16:42:19.341Z,66.80
2023-04-25T16:47:42.189Z,67.24
2023-04-25T16:53:04.770Z,67.94
2023-04-25T16:58:29.377Z,68.43
2023-04-25T17:03:52.330Z,69.15
2023-04-25T17:09:15.806Z,69.60
2023-04-25T17:14:40.476Z,70.06
2023-04-25T17:20:04.583Z,70.49
2023-04-25T17:25:27.849Z,71.12
2023-04-25T17:30:50.953Z,71.81
2023-04-25T17:36:13.825Z,72.25
2023-04-25T17:41:40.860Z,72.59
2023-04-25T17:47:03.229Z,73.32
2023-04-25T17:52:26.053Z,73.78
2023-04-25T17:57:48.437Z,74.03
2023-04-25T18:03:11.587Z,73.70
2023-04-25T18:08:34.256Z,74.27
2023-04-25T18:13:56.732Z,75.54
2023-04-25T18:19:24.668Z,78.67
2023-04-25T18:24:47.001Z,81.94
2023-04-25T18:30:09.852Z,84.77
2023-04-25T18:35:32.785Z,86.93
2023-04-25T18:41:00.063Z,88.75
2023-04-25T18:46:20.709Z,90.33
2023-04-25T18:51:49.029Z,91.71
2023-04-25T18:57:13.244Z,93.13
2023-04-25T19:02:37.632Z,94.34
2023-04-25T19:08:01.608Z,95.19
2023-04-25T19:13:23.858Z,96.01
2023-04-25T19:18:46.154Z,96.23
2023-04-25T19:24:09.717Z,95.21
2023-04-25T19:29:34.390Z,92.69
2023-04-25T19:34:56.835Z,89.88
2023-04-25T19:40:22.760Z,87.58
2023-04-25T19:45:46.861Z,85.90
2023-04-25T19:51:09.445Z,84.72
2023-04-25T19:56:32.893Z,84.32
2023-04-25T20:01:56.485Z,84.07
2023-04-25T20:07:20.863Z,83.14
2023-04-25T20:12:43.237Z,82.25
2023-04-25T20:18:05.462Z,81.82
2023-04-25T20:23:28.096Z,82.20
2023-04-25T20:28:51.106Z,82.31
2023-04-25T20:34:14.067Z,82.62
2023-04-25T20:39:36.531Z,83.33
2023-04-25T20:44:58.907Z,84.08
2023-04-25T20:50:21.642Z,84.53
2023-04-25T20:55:44.520Z,85.18
2023-04-25T21:01:07.055Z,86.06
2023-04-25T21:06:29.736Z,87.14
2023-04-25T21:11:52.449Z,88.41
2023-04-25T21:17:14.755Z,89.77
2023-04-25T21:22:37.270Z,90.98
2023-04-25T21:28:00.454Z,92.29
2023-04-25T21:33:22.776Z,93.58
2023-04-25T21:38:45.053Z,94.71
2023-04-25T21:44:07.417Z,95.62
2023-04-25T21:49:29.780Z,96.26
2023-04-25T21:54:52.134Z,96.45
2023-04-25T22:00:22.318Z,96.31
2023-04-25T22:05:44.662Z,96.02
2023-04-25T22:11:07.744Z,95.62
2023-04-25T22:16:30.040Z,95.31
2023-04-25T22:21:52.393Z,94.60
2023-04-25T22:27:15.360Z,93.73
2023-04-25T22:32:38.616Z,92.63
2023-04-25T22:38:00.921Z,91.34
2023-04-25T22:43:23.250Z,89.83
2023-04-25T22:48:45.951Z,88.44
2023-04-25T22:54:08.189Z,87.29
2023-04-25T22:59:31.635Z,86.59
2023-04-25T23:04:54.146Z,86.06
2023-04-25T23:10:16.918Z,85.42
2023-04-25T23:15:40.714Z,84.63
2023-04-25T23:21:03.078Z,83.60
2023-04-25T23:26:27.408Z,82.80
2023-04-25T23:31:49.733Z,82.12
2023-04-25T23:37:12.098Z,81.63
2023-04-25T23:42:35.130Z,81.45
2023-04-25T23:47:57.404Z,81.37
2023-04-25T23:53:20.720Z,81.33
2023-04-25T23:58:42.977Z,81.39
